createdAt,value
2019-03-06T00:00:41.681Z,5.88
2019-03-06T00:03:46.370Z,5.88
2019-03-06T00:06:51.100Z,5.83
2019-03-06T00:09:55.832Z,5.80
2019-03-06T00:13:00.977Z,5.83
2019-03-06T00:16:05.705Z,5.97
2019-03-06T00:19:10.433Z,6.05
2019-03-06T00:22:15.164Z,6.05
2019-03-06T00:25:19.899Z,5.86
2019-03-06T00:28:24.633Z,5.80
2019-03-06T00:31:29.365Z,5.79
2019-03-06T00:34:33.800Z,5.86
2019-03-06T00:37:38.507Z,5.96
2019-03-06T00:40:45.907Z,5.89
2019-03-06T00:43:50.644Z,5.73
2019-03-06T00:46:55.371Z,5.66
2019-03-06T00:50:00.183Z,5.59
2019-03-06T00:53:05.034Z,5.72
2019-03-06T00:56:09.764Z,5.86
2019-03-06T00:59:14.573Z,5.86
2019-03-06T01:02:19.012Z,5.88
2019-03-06T01:05:24.488Z,5.77
2019-03-06T01:08:29.402Z,5.71
2019-03-06T01:11:34.235Z,5.65
2019-03-06T01:14:38.898Z,5.62
2019-03-06T01:17:43.563Z,5.73
2019-03-06T01:20:48.227Z,5.93
2019-03-06T01:23:52.711Z,5.94
2019-03-06T01:26:57.389Z,5.93
2019-03-06T01:30:01.820Z,5.82
2019-03-06T01:33:09.302Z,5.92
2019-03-06T01:36:15.612Z,6.10
2019-03-06T01:39:25.022Z,5.99
2019-03-06T01:42:32.187Z,6.07
2019-03-06T01:45:36.926Z,5.97
2019-03-06T01:48:41.655Z,5.85
2019-03-06T01:51:46.392Z,5.91
2019-03-06T01:54:51.122Z,5.68
2019-03-06T01:57:55.848Z,5.50
2019-03-06T02:01:00.582Z,5.30
2019-03-06T02:04:05.018Z,5.29
2019-03-06T02:07:09.890Z,5.49
2019-03-06T02:10:16.084Z,5.52
2019-03-06T02:13:24.684Z,5.53
2019-03-06T02:16:29.350Z,5.44
2019-03-06T02:19:33.853Z,5.30
2019-03-06T02:22:38.297Z,5.40
2019-03-06T02:25:43.134Z,5.38
2019-03-06T02:28:47.570Z,5.37
2019-03-06T02:31:52.292Z,5.26
2019-03-06T02:34:57.014Z,5.18
2019-03-06T02:38:01.457Z,5.13
2019-03-06T02:41:06.177Z,5.20
2019-03-06T02:44:11.000Z,5.52
2019-03-06T02:47:15.848Z,5.50
2019-03-06T02:50:20.919Z,5.37
2019-03-06T02:53:25.731Z,5.36
2019-03-06T02:56:30.548Z,5.40
2019-03-06T02:59:45.622Z,5.58
2019-03-06T03:02:51.705Z,5.63
2019-03-06T03:05:58.592Z,5.44
2019-03-06T03:09:03.708Z,5.22
2019-03-06T03:12:08.545Z,5.09
2019-03-06T03:15:13.116Z,5.08
2019-03-06T03:18:17.906Z,5.08
2019-03-06T03:21:22.343Z,5.19
2019-03-06T03:24:27.049Z,5.23
2019-03-06T03:27:31.783Z,5.28
2019-03-06T03:30:36.591Z,5.29
2019-03-06T03:33:41.347Z,5.15
2019-03-06T03:36:45.770Z,5.10
2019-03-06T03:39:50.209Z,5.11
2019-03-06T03:42:54.818Z,5.15
2019-03-06T03:45:59.554Z,4.96
2019-03-06T03:49:04.278Z,4.98
2019-03-06T03:52:09.319Z,4.89
2019-03-06T03:55:19.923Z,4.92
2019-03-06T03:58:24.370Z,4.79
2019-03-06T04:01:28.805Z,4.67
2019-03-06T04:04:33.570Z,4.55
2019-03-06T04:07:38.306Z,4.52
2019-03-06T04:10:42.750Z,4.57
2019-03-06T04:13:47.180Z,4.50
2019-03-06T04:16:51.613Z,4.54
2019-03-06T04:19:56.096Z,4.64
2019-03-06T04:23:00.921Z,4.69
2019-03-06T04:26:05.369Z,4.80
2019-03-06T04:29:09.800Z,4.59
2019-03-06T04:32:14.510Z,4.68
2019-03-06T04:35:18.944Z,4.58
2019-03-06T04:38:23.372Z,4.65
2019-03-06T04:41:27.814Z,4.51
2019-03-06T04:44:32.606Z,4.54
2019-03-06T04:47:37.747Z,4.46
2019-03-06T04:50:42.475Z,4.47
2019-03-06T04:53:47.206Z,4.56
2019-03-06T04:56:51.641Z,4.69
2019-03-06T04:59:56.363Z,4.53
2019-03-06T05:03:00.787Z,4.47
2019-03-06T05:06:05.520Z,4.37
2019-03-06T05:09:10.228Z,4.45
2019-03-06T05:12:14.673Z,4.30
2019-03-06T05:15:20.123Z,4.24
2019-03-06T05:18:26.188Z,4.23
2019-03-06T05:21:30.910Z,4.17
2019-03-06T05:24:35.338Z,4.07
2019-03-06T05:27:39.788Z,4.05
2019-03-06T05:30:44.487Z,4.00
2019-03-06T05:33:48.917Z,3.95
2019-03-06T05:37:24.168Z,4.00
2019-03-06T05:40:28.596Z,4.14
2019-03-06T05:43:33.021Z,4.25
2019-03-06T05:46:37.736Z,4.20
2019-03-06T05:49:42.164Z,4.22
2019-03-06T05:52:46.602Z,4.24
2019-03-06T05:55:51.421Z,4.31
2019-03-06T05:58:55.835Z,4.39
2019-03-06T06:02:00.576Z,4.41
2019-03-06T06:05:11.023Z,4.53
2019-03-06T06:08:15.456Z,4.53
2019-03-06T06:11:20.132Z,4.51
2019-03-06T06:14:24.815Z,4.49
2019-03-06T06:17:29.553Z,4.46
2019-03-06T06:20:34.285Z,4.51
2019-03-06T06:23:40.505Z,4.51
2019-03-06T06:26:45.178Z,4.72
2019-03-06T06:29:49.908Z,5.24
2019-03-06T06:32:54.333Z,6.53
2019-03-06T06:35:59.177Z,7.89
2019-03-06T06:39:05.122Z,9.23
2019-03-06T06:42:09.857Z,10.35
2019-03-06T06:45:20.147Z,11.01
2019-03-06T06:48:28.816Z,10.38
2019-03-06T06:51:48.910Z,10.81
2019-03-06T06:55:14.757Z,10.85
2019-03-06T06:58:32.786Z,10.58
2019-03-06T07:02:13.068Z,10.99
2019-03-06T07:05:22.425Z,11.50
2019-03-06T07:08:28.773Z,11.87
2019-03-06T07:11:40.621Z,12.13
2019-03-06T07:14:55.794Z,11.85
2019-03-06T07:18:05.790Z,10.83
2019-03-06T07:21:11.868Z,9.55
2019-03-06T07:24:36.041Z,8.84
2019-03-06T07:27:42.119Z,8.54
2019-03-06T07:30:53.634Z,8.17
2019-03-06T07:34:11.385Z,7.94
2019-03-06T07:37:17.484Z,7.97
2019-03-06T07:40:23.465Z,8.04
2019-03-06T07:43:35.930Z,7.95
2019-03-06T07:46:53.983Z,7.67
2019-03-06T07:50:02.783Z,7.49
2019-03-06T07:53:46.890Z,7.57
2019-03-06T07:56:55.614Z,7.48
2019-03-06T08:00:00.068Z,7.45
2019-03-06T08:03:07.186Z,7.48
2019-03-06T08:06:11.615Z,7.64
2019-03-06T08:09:20.965Z,7.65
2019-03-06T08:12:25.156Z,7.74
2019-03-06T08:15:47.251Z,7.81
2019-03-06T08:18:56.074Z,7.79
2019-03-06T08:22:02.085Z,7.75
2019-03-06T08:25:26.190Z,7.64
2019-03-06T08:28:30.643Z,7.76
2019-03-06T08:31:39.521Z,8.00
2019-03-06T08:34:44.204Z,8.21
2019-03-06T08:37:48.627Z,8.31
2019-03-06T08:40:53.072Z,8.55
2019-03-06T08:43:57.509Z,8.76
2019-03-06T08:47:12.341Z,9.04
2019-03-06T08:50:22.701Z,9.26
2019-03-06T08:53:29.074Z,9.38
2019-03-06T08:56:45.378Z,9.54
2019-03-06T08:59:54.101Z,9.66
2019-03-06T09:03:21.354Z,9.88
2019-03-06T09:06:33.669Z,9.92
2019-03-06T09:09:38.191Z,10.08
2019-03-06T09:12:44.264Z,10.27
2019-03-06T09:15:59.247Z,10.31
2019-03-06T09:19:21.147Z,10.36
2019-03-06T09:22:28.773Z,10.57
2019-03-06T09:25:46.972Z,10.74
2019-03-06T09:29:09.240Z,10.92
2019-03-06T09:32:15.315Z,11.08
2019-03-06T09:35:37.458Z,11.44
2019-03-06T09:38:44.320Z,11.72
2019-03-06T09:41:53.114Z,11.90
2019-03-06T09:45:05.773Z,12.38
2019-03-06T09:48:12.783Z,12.64
2019-03-06T09:51:24.666Z,12.96
2019-03-06T09:54:46.905Z,13.15
2019-03-06T09:57:55.661Z,13.41
2019-03-06T10:01:04.758Z,13.33
2019-03-06T10:04:15.248Z,13.20
2019-03-06T10:07:21.335Z,12.80
2019-03-06T10:10:27.423Z,12.74
2019-03-06T10:13:42.235Z,12.46
2019-03-06T10:16:49.017Z,12.28
2019-03-06T10:20:00.323Z,12.13
2019-03-06T10:23:04.883Z,12.08
2019-03-06T10:26:09.332Z,12.07
2019-03-06T10:29:14.053Z,12.22
2019-03-06T10:32:18.780Z,12.24
2019-03-06T10:35:23.227Z,12.18
2019-03-06T10:38:27.840Z,12.23
2019-03-06T10:41:32.285Z,12.24
2019-03-06T10:44:37.006Z,12.04
2019-03-06T10:47:41.430Z,12.10
2019-03-06T10:50:45.880Z,12.14
2019-03-06T10:53:50.313Z,12.28
2019-03-06T10:56:55.299Z,12.33
2019-03-06T10:59:59.738Z,12.32
2019-03-06T11:03:05.168Z,12.38
2019-03-06T11:06:10.006Z,12.35
2019-03-06T11:09:14.574Z,12.36
2019-03-06T11:12:19.014Z,12.36
2019-03-06T11:15:23.614Z,12.39
2019-03-06T11:18:28.673Z,12.50
2019-03-06T11:21:34.164Z,12.47
2019-03-06T11:24:38.604Z,12.54
2019-03-06T11:27:43.047Z,12.62
2019-03-06T11:30:56.778Z,12.73
2019-03-06T11:34:01.220Z,12.86
2019-03-06T11:37:06.138Z,13.13
2019-03-06T11:40:16.581Z,13.29
2019-03-06T11:43:21.373Z,13.47
2019-03-06T11:46:27.598Z,13.68
2019-03-06T11:49:32.212Z,13.99
2019-03-06T11:52:36.938Z,14.06
2019-03-06T11:55:41.549Z,14.29
2019-03-06T11:58:46.524Z,14.44
2019-03-06T12:01:51.042Z,14.83
2019-03-06T12:04:55.478Z,15.16
2019-03-06T12:07:59.988Z,15.10
2019-03-06T12:11:04.502Z,15.32
2019-03-06T12:14:09.017Z,15.35
2019-03-06T12:17:13.531Z,15.25
2019-03-06T12:20:17.976Z,15.19
2019-03-06T12:23:22.475Z,15.37
2019-03-06T12:26:26.917Z,15.54
2019-03-06T12:29:31.599Z,15.31
2019-03-06T12:32:36.388Z,15.41
2019-03-06T12:35:40.826Z,15.41
2019-03-06T12:38:45.271Z,15.53
2019-03-06T12:41:49.993Z,15.52
2019-03-06T12:44:54.428Z,15.67
2019-03-06T12:48:06.368Z,16.01
2019-03-06T12:51:10.802Z,16.45
2019-03-06T12:54:15.249Z,16.84
2019-03-06T12:57:19.697Z,17.04
2019-03-06T13:00:26.610Z,17.07
2019-03-06T13:03:31.236Z,17.29
2019-03-06T13:06:35.667Z,17.46
2019-03-06T13:09:40.107Z,17.76
2019-03-06T13:12:45.264Z,17.93
2019-03-06T13:15:49.704Z,18.22
2019-03-06T13:18:54.144Z,18.40
2019-03-06T13:21:58.587Z,18.66
2019-03-06T13:25:03.031Z,18.44
2019-03-06T13:28:07.995Z,18.69
2019-03-06T13:31:12.428Z,18.74
2019-03-06T13:34:18.788Z,18.63
2019-03-06T13:37:23.226Z,18.65
2019-03-06T13:40:27.674Z,18.72
2019-03-06T13:43:32.113Z,19.33
2019-03-06T13:46:36.613Z,20.12
2019-03-06T13:49:41.052Z,20.74
2019-03-06T13:52:45.564Z,20.93
2019-03-06T13:55:50.003Z,20.80
2019-03-06T13:58:54.799Z,20.45
2019-03-06T14:01:59.567Z,19.85
2019-03-06T14:05:06.081Z,20.15
2019-03-06T14:08:10.827Z,19.77
2019-03-06T14:11:15.337Z,19.29
2019-03-06T14:14:20.081Z,18.97
2019-03-06T14:17:24.813Z,18.42
2019-03-06T14:20:29.260Z,18.08
2019-03-06T14:23:35.271Z,18.08
2019-03-06T14:26:39.993Z,17.83
2019-03-06T14:29:44.437Z,17.54
2019-03-06T14:32:49.798Z,17.27
2019-03-06T14:35:54.529Z,17.09
2019-03-06T14:38:59.261Z,16.84
2019-03-06T14:42:04.394Z,16.66
2019-03-06T14:45:13.637Z,16.55
2019-03-06T14:48:18.469Z,16.49
2019-03-06T14:51:22.909Z,16.42
2019-03-06T14:54:27.624Z,16.32
2019-03-06T14:57:32.602Z,16.20
2019-03-06T15:00:37.097Z,16.12
2019-03-06T15:03:41.540Z,16.03
2019-03-06T15:06:46.348Z,15.90
2019-03-06T15:09:51.070Z,15.90
2019-03-06T15:12:55.603Z,15.88
2019-03-06T15:16:00.438Z,15.89
2019-03-06T15:19:04.947Z,15.87
2019-03-06T15:22:09.390Z,15.84
2019-03-06T15:25:23.848Z,15.81
2019-03-06T15:28:28.571Z,15.81
2019-03-06T15:31:33.310Z,15.74
2019-03-06T15:34:37.743Z,15.69
2019-03-06T15:37:42.177Z,15.67
2019-03-06T15:40:46.613Z,15.67
2019-03-06T15:43:51.308Z,15.62
2019-03-06T15:46:56.033Z,15.55
2019-03-06T15:50:00.868Z,15.55
2019-03-06T15:53:05.846Z,15.48
2019-03-06T15:56:10.357Z,15.48
2019-03-06T15:59:15.329Z,15.44
2019-03-06T16:02:19.785Z,15.41
2019-03-06T16:05:24.226Z,15.31
2019-03-06T16:08:29.659Z,15.25
2019-03-06T16:11:34.396Z,15.16
2019-03-06T16:14:39.125Z,15.09
2019-03-06T16:17:43.562Z,15.11
2019-03-06T16:20:48.004Z,15.11
2019-03-06T16:23:52.442Z,15.08
2019-03-06T16:26:57.242Z,15.04
2019-03-06T16:30:01.955Z,15.03
2019-03-06T16:33:06.835Z,15.05
2019-03-06T16:36:11.287Z,15.02
2019-03-06T16:39:16.049Z,14.96
2019-03-06T16:42:20.777Z,14.90
2019-03-06T16:45:29.942Z,14.84
2019-03-06T16:48:34.379Z,14.75
2019-03-06T16:51:38.818Z,14.69
2019-03-06T16:54:43.258Z,14.59
2019-03-06T16:57:48.235Z,14.52
2019-03-06T17:00:55.619Z,14.38
2019-03-06T17:04:00.149Z,14.23
2019-03-06T17:07:05.186Z,14.06
2019-03-06T17:10:10.012Z,13.99
2019-03-06T17:13:14.443Z,13.87
2019-03-06T17:16:18.951Z,13.79
2019-03-06T17:19:23.455Z,13.73
2019-03-06T17:22:28.219Z,13.68
2019-03-06T17:25:33.670Z,13.63
2019-03-06T17:28:38.103Z,13.57
2019-03-06T17:31:43.488Z,13.56
2019-03-06T17:34:47.967Z,13.52
2019-03-06T17:37:52.793Z,13.46
2019-03-06T17:40:57.236Z,13.34
2019-03-06T17:44:01.955Z,13.21
2019-03-06T17:47:06.397Z,13.21
2019-03-06T17:50:12.741Z,13.24
2019-03-06T17:53:17.180Z,13.34
2019-03-06T17:56:21.916Z,13.31
2019-03-06T17:59:26.727Z,13.52
2019-03-06T18:02:31.559Z,13.69
2019-03-06T18:05:36.413Z,13.74
2019-03-06T18:08:40.841Z,13.87
2019-03-06T18:11:45.350Z,13.88
2019-03-06T18:14:50.079Z,13.90
2019-03-06T18:17:54.515Z,13.95
2019-03-06T18:20:58.977Z,14.01
2019-03-06T18:24:03.855Z,13.95
2019-03-06T18:27:08.690Z,13.95
2019-03-06T18:30:18.735Z,13.88
2019-03-06T18:33:23.181Z,13.82
2019-03-06T18:36:27.695Z,13.77
2019-03-06T18:39:32.425Z,13.69
2019-03-06T18:42:37.155Z,13.65
2019-03-06T18:45:41.758Z,13.60
2019-03-06T18:48:46.247Z,13.54
2019-03-06T18:51:50.686Z,13.55
2019-03-06T18:54:55.124Z,13.45
2019-03-06T18:57:59.918Z,13.37
2019-03-06T19:01:05.030Z,13.28
2019-03-06T19:04:09.756Z,13.11
2019-03-06T19:07:14.198Z,13.11
2019-03-06T19:10:20.667Z,13.13
2019-03-06T19:13:25.278Z,13.10
2019-03-06T19:16:30.935Z,13.12
2019-03-06T19:19:35.666Z,13.16
2019-03-06T19:22:40.932Z,13.17
2019-03-06T19:25:45.367Z,13.29
2019-03-06T19:28:49.812Z,13.35
2019-03-06T19:31:54.261Z,13.40
2019-03-06T19:34:59.322Z,13.42
2019-03-06T19:38:04.152Z,13.46
2019-03-06T19:41:08.887Z,13.50
2019-03-06T19:44:13.612Z,13.53
2019-03-06T19:47:18.350Z,13.54
2019-03-06T19:50:26.242Z,13.51
2019-03-06T19:53:31.186Z,13.49
2019-03-06T19:56:35.629Z,13.48
2019-03-06T19:59:40.336Z,13.54
2019-03-06T20:02:45.067Z,13.55
2019-03-06T20:05:49.506Z,13.48
2019-03-06T20:08:54.230Z,13.50
2019-03-06T20:11:58.959Z,13.51
2019-03-06T20:15:03.772Z,13.54
2019-03-06T20:18:08.218Z,13.53
2019-03-06T20:21:12.938Z,13.53
2019-03-06T20:24:17.376Z,13.57
2019-03-06T20:27:21.819Z,13.48
2019-03-06T20:30:27.769Z,13.51
2019-03-06T20:33:34.104Z,13.53
2019-03-06T20:36:39.053Z,13.48
2019-03-06T20:39:43.775Z,13.37
2019-03-06T20:42:48.924Z,13.32
2019-03-06T20:45:53.362Z,13.32
2019-03-06T20:48:57.886Z,13.29
2019-03-06T20:52:02.318Z,13.25
2019-03-06T20:55:10.411Z,13.22
2019-03-06T20:58:14.846Z,13.16
2019-03-06T21:01:19.289Z,13.05
2019-03-06T21:04:23.990Z,12.96
2019-03-06T21:07:28.814Z,12.89
2019-03-06T21:10:33.247Z,12.82
2019-03-06T21:13:37.975Z,12.68
2019-03-06T21:16:42.699Z,12.53
2019-03-06T21:19:47.433Z,12.45
2019-03-06T21:22:52.273Z,12.27
2019-03-06T21:25:57.003Z,12.10
2019-03-06T21:29:01.438Z,12.03
2019-03-06T21:32:06.152Z,11.99
2019-03-06T21:35:10.982Z,11.91
2019-03-06T21:38:15.428Z,11.91
2019-03-06T21:41:19.862Z,11.88
2019-03-06T21:44:24.315Z,11.94
2019-03-06T21:47:28.817Z,11.83
2019-03-06T21:50:33.524Z,11.73
2019-03-06T21:53:39.190Z,11.75
2019-03-06T21:56:44.003Z,11.61
2019-03-06T21:59:48.830Z,11.54
2019-03-06T22:02:53.988Z,11.72
2019-03-06T22:05:58.411Z,11.64
2019-03-06T22:09:02.924Z,11.67
2019-03-06T22:12:07.643Z,11.70
2019-03-06T22:15:22.938Z,11.65
2019-03-06T22:18:27.661Z,11.60
2019-03-06T22:21:32.110Z,11.56
2019-03-06T22:24:36.560Z,11.45
2019-03-06T22:27:40.993Z,11.30
2019-03-06T22:30:45.443Z,11.26
2019-03-06T22:33:50.187Z,11.28
2019-03-06T22:36:54.923Z,11.37
2019-03-06T22:39:59.361Z,11.37
2019-03-06T22:43:04.080Z,11.18
2019-03-06T22:46:08.803Z,11.09
2019-03-06T22:49:13.532Z,11.01
2019-03-06T22:52:18.265Z,10.99
2019-03-06T22:55:22.775Z,10.88
2019-03-06T22:58:27.520Z,10.88
2019-03-06T23:01:32.799Z,10.80
2019-03-06T23:04:37.496Z,10.73
2019-03-06T23:07:42.227Z,10.67
2019-03-06T23:10:47.564Z,10.60
2019-03-06T23:13:52.307Z,10.62
2019-03-06T23:16:57.034Z,10.38
2019-03-06T23:20:01.487Z,10.28
2019-03-06T23:23:06.498Z,10.14
2019-03-06T23:26:11.222Z,10.09
2019-03-06T23:29:15.659Z,10.14
2019-03-06T23:32:20.383Z,10.17
2019-03-06T23:35:24.820Z,10.03
2019-03-06T23:38:29.247Z,9.98
2019-03-06T23:41:33.952Z,9.97
2019-03-06T23:44:38.378Z,9.96
2019-03-06T23:47:43.112Z,9.87
2019-03-06T23:50:47.546Z,9.91
2019-03-06T23:53:52.739Z,9.79
2019-03-06T23:56:57.247Z,9.68
